Time;durP1;ratioP1;P1;durP2;ratioP2;P2;SDS_P1;SDS_P2;PMS_P1;PMS_P2;Temp;Humidity;BMP_temperature;BMP_pressure;BME280_temperature;BME280_humidity;BME280_pressure;Samples;Min_cycle;Max_cycle;Signal;HPM_P1;HPM_P2
2023/06/01 00:01:08;;;;;;;16.50;14.90;;;;;;;14.38;100.00;92990.56;5019606;28;20211;-75
2023/06/01 00:03:36;;;;;;;17.57;15.37;;;;;;;14.39;100.00;92984.25;5019893;28;20191;-75
2023/06/01 00:06:02;;;;;;;16.57;14.93;;;;;;;14.07;100.00;92953.56;5002989;28;20241;-75
2023/06/01 00:08:27;;;;;;;18.70;14.80;;;;;;;14.34;100.00;92976.44;5012765;28;20697;-73
2023/06/01 00:10:53;;;;;;;16.13;14.47;;;;;;;13.95;100.00;92960.34;5005286;28;20230;-75
2023/06/01 00:13:19;;;;;;;15.97;14.33;;;;;;;14.24;100.00;92969.53;5013239;28;20620;-76
2023/06/01 00:15:44;;;;;;;16.43;15.00;;;;;;;14.24;100.00;92974.03;5013090;28;20219;-76
2023/06/01 00:18:12;;;;;;;16.57;14.97;;;;;;;14.24;100.00;92963.53;5018172;28;20215;-75
2023/06/01 00:20:38;;;;;;;15.73;14.43;;;;;;;14.38;100.00;92974.81;5011288;28;20222;-75
2023/06/01 00:23:04;;;;;;;14.83;13.67;;;;;;;14.40;100.00;92968.19;4995607;28;20184;-75
2023/06/01 00:25:29;;;;;;;16.00;14.50;;;;;;;14.38;100.00;92980.81;4994300;28;20227;-75
2023/06/01 00:27:55;;;;;;;15.03;13.83;;;;;;;14.34;100.00;92979.06;5008014;28;20180;-76
2023/06/01 00:30:21;;;;;;;16.23;14.83;;;;;;;14.11;100.00;92975.53;5006634;28;20234;-75
2023/06/01 00:32:46;;;;;;;16.67;15.47;;;;;;;13.99;100.00;92969.97;5013618;28;20191;-76
2023/06/01 00:35:12;;;;;;;17.63;15.60;;;;;;;14.01;100.00;92980.19;4992276;28;20516;-75
2023/06/01 00:37:37;;;;;;;15.00;13.80;;;;;;;13.86;100.00;92965.50;5004240;28;20231;-75
2023/06/01 00:40:03;;;;;;;15.23;13.93;;;;;;;13.91;100.00;92957.53;5010798;28;20235;-76
2023/06/01 00:42:28;;;;;;;16.10;14.80;;;;;;;14.15;100.00;92958.13;5002087;28;20192;-75
2023/06/01 00:44:54;;;;;;;14.53;13.23;;;;;;;14.31;100.00;92980.44;5010765;28;20234;-75
2023/06/01 00:47:20;;;;;;;14.93;13.73;;;;;;;14.02;100.00;92960.75;4998585;28;20188;-74
2023/06/01 00:49:46;;;;;;;15.37;14.17;;;;;;;14.09;100.00;92972.44;5011292;28;20231;-75
2023/06/01 00:52:13;;;;;;;16.07;14.57;;;;;;;14.31;100.00;92974.41;5023021;28;20183;-75
2023/06/01 00:54:38;;;;;;;14.70;13.50;;;;;;;13.89;100.00;92930.78;5015267;28;20218;-75
2023/06/01 00:57:05;;;;;;;14.80;13.60;;;;;;;14.06;100.00;92983.50;5018948;28;20183;-75
2023/06/01 00:59:31;;;;;;;15.60;14.40;;;;;;;14.13;100.00;92978.63;5010510;28;20262;-75
2023/06/01 01:01:57;;;;;;;15.00;13.67;;;;;;;13.63;100.00;92979.53;5023479;28;20191;-76
2023/06/01 01:04:25;;;;;;;15.50;14.20;;;;;;;13.47;100.00;92954.63;5004887;28;20222;-75
2023/06/01 01:07:21;;;;;;;15.70;14.30;;;;;;;13.72;100.00;92962.06;5018264;28;20251;-75
2023/06/01 01:09:58;;;;;;;14.50;13.20;;;;;;;13.85;100.00;92969.16;4998363;28;20247;-75
2023/06/01 01:12:27;;;;;;;16.43;14.93;;;;;;;13.76;100.00;92949.16;5028046;28;20232;-75
2023/06/01 01:15:08;;;;;;;15.73;14.40;;;;;;;13.80;100.00;92956.16;5021203;28;20245;-75
2023/06/01 01:17:38;;;;;;;16.50;15.03;;;;;;;13.95;100.00;92976.88;4991673;28;20275;-75
2023/06/01 01:20:17;;;;;;;14.97;13.83;;;;;;;13.95;100.00;92974.25;5012355;28;20250;-75
2023/06/01 01:23:17;;;;;;;14.53;13.43;;;;;;;13.98;100.00;92975.50;4993633;28;20172;-76
2023/06/01 01:26:34;;;;;;;15.07;13.87;;;;;;;13.90;100.00;92979.59;4999210;28;20243;-75
2023/06/01 01:29:08;;;;;;;15.70;14.33;;;;;;;13.89;100.00;92988.53;4921828;29;20259;-76
2023/06/01 01:31:34;;;;;;;15.10;13.83;;;;;;;13.98;100.00;92992.06;4997222;28;20207;-75
2023/06/01 01:34:02;;;;;;;14.67;13.37;;;;;;;13.90;100.00;92974.34;5010690;28;20191;-76
2023/06/01 01:36:29;;;;;;;15.17;14.07;;;;;;;13.90;100.00;92971.72;5010412;28;20190;-75
2023/06/01 01:38:54;;;;;;;15.87;14.27;;;;;;;14.11;100.00;92974.75;5009860;28;20209;-75
2023/06/01 01:41:21;;;;;;;15.07;13.77;;;;;;;14.29;100.00;92992.28;5010166;28;20191;-75
2023/06/01 01:43:48;;;;;;;14.30;12.90;;;;;;;14.04;100.00;92969.88;5011422;28;20207;-76
2023/06/01 01:46:25;;;;;;;16.07;14.50;;;;;;;14.14;100.00;92977.59;5002814;28;20219;-76
2023/06/01 01:49:14;;;;;;;14.10;13.00;;;;;;;14.24;100.00;92995.03;5012341;28;20198;-75
2023/06/01 01:51:51;;;;;;;14.87;13.67;;;;;;;13.95;100.00;92995.25;5001110;28;20271;-76
2023/06/01 01:54:18;;;;;;;14.90;13.80;;;;;;;13.84;100.00;92965.00;5009408;28;20230;-76
2023/06/01 01:56:44;;;;;;;14.10;12.90;;;;;;;13.74;100.00;92959.91;5007508;28;20196;-75
2023/06/01 01:59:10;;;;;;;15.03;13.67;;;;;;;13.75;100.00;92987.72;5011522;28;21647;-75
2023/06/01 02:01:37;;;;;;;14.43;13.23;;;;;;;13.83;100.00;92989.69;4993611;28;20184;-75
2023/06/01 02:04:04;;;;;;;14.17;12.97;;;;;;;13.77;100.00;92990.06;5011604;28;20244;-76
2023/06/01 02:06:30;;;;;;;15.40;13.97;;;;;;;13.76;100.00;92989.28;5009069;28;20226;-76
2023/06/01 02:08:56;;;;;;;14.80;13.50;;;;;;;13.50;100.00;92987.34;4990459;28;20191;-75
2023/06/01 02:11:21;;;;;;;14.17;13.17;;;;;;;13.55;100.00;92980.19;5002150;28;20223;-75
2023/06/01 02:13:47;;;;;;;14.33;13.23;;;;;;;13.72;100.00;92995.38;5016100;28;20249;-75
2023/06/01 02:16:13;;;;;;;14.80;13.50;;;;;;;13.45;100.00;92979.59;5007449;28;20223;-82
2023/06/01 02:18:39;;;;;;;14.37;13.27;;;;;;;13.36;100.00;92955.84;5010359;28;20197;-83
2023/06/01 02:21:05;;;;;;;14.77;13.67;;;;;;;13.43;100.00;92966.72;5009046;28;20203;-82
2023/06/01 02:23:31;;;;;;;14.90;13.57;;;;;;;13.38;100.00;92977.31;5010954;28;20270;-81
2023/06/01 02:25:56;;;;;;;14.93;13.37;;;;;;;13.61;100.00;92991.38;5009688;28;20226;-81
2023/06/01 02:28:22;;;;;;;13.80;12.70;;;;;;;13.53;100.00;92982.31;5011262;28;20251;-82
2023/06/01 02:30:47;;;;;;;14.30;13.13;;;;;;;13.50;100.00;92972.41;5005605;28;20222;-81
2023/06/01 02:33:12;;;;;;;14.73;13.43;;;;;;;13.30;100.00;92954.38;5010146;28;20191;-81
2023/06/01 02:35:38;;;;;;;15.93;14.63;;;;;;;13.39;100.00;92985.94;5009286;28;20334;-81
2023/06/01 02:38:04;;;;;;;14.77;13.67;;;;;;;13.37;100.00;92996.72;5010552;28;20217;-81
2023/06/01 02:40:30;;;;;;;15.77;14.20;;;;;;;13.39;100.00;92994.59;5000092;28;20235;-83
2023/06/01 02:42:55;;;;;;;14.93;13.73;;;;;;;13.49;100.00;92998.91;5008692;28;20203;-81
2023/06/01 02:45:21;;;;;;;14.97;13.67;;;;;;;13.20;100.00;92970.25;5010494;28;20287;-80
2023/06/01 02:47:46;;;;;;;13.20;12.17;;;;;;;13.33;100.00;92990.50;5010090;28;20183;-81
2023/06/01 02:50:12;;;;;;;14.53;13.30;;;;;;;13.40;100.00;92985.66;5010509;28;20231;-81
2023/06/01 02:52:37;;;;;;;14.87;13.70;;;;;;;13.58;100.00;93003.22;5015557;28;20241;-81
2023/06/01 02:55:04;;;;;;;15.37;13.97;;;;;;;13.43;100.00;92974.59;5013552;28;20237;-81
2023/06/01 02:57:30;;;;;;;15.30;13.93;;;;;;;13.51;100.00;93005.41;5007020;28;20260;-81
2023/06/01 02:59:55;;;;;;;16.23;14.83;;;;;;;13.48;100.00;93011.25;5014887;28;20941;-81
2023/06/01 03:02:21;;;;;;;17.10;15.60;;;;;;;13.54;100.00;93002.22;5015332;28;20203;-80
2023/06/01 03:04:46;;;;;;;15.20;13.70;;;;;;;13.54;100.00;92994.34;5014379;28;20231;-80
2023/06/01 03:07:12;;;;;;;14.37;13.20;;;;;;;13.32;100.00;92975.84;5014473;28;20247;-80
2023/06/01 03:09:38;;;;;;;15.73;14.37;;;;;;;13.61;100.00;92999.25;5013258;28;20223;-81
2023/06/01 03:12:03;;;;;;;16.37;14.83;;;;;;;13.73;100.00;92995.09;5011689;28;20222;-81
2023/06/01 03:14:29;;;;;;;16.03;14.73;;;;;;;13.88;100.00;93000.09;5013218;28;20229;-81
2023/06/01 03:16:54;;;;;;;15.57;14.37;;;;;;;13.82;100.00;92971.63;5006410;28;20180;-82
2023/06/01 03:19:20;;;;;;;15.50;14.23;;;;;;;14.21;100.00;93001.59;5021769;28;20221;-81
2023/06/01 03:21:47;;;;;;;15.90;14.20;;;;;;;14.54;100.00;93004.94;5005486;28;20203;-80
2023/06/01 03:24:12;;;;;;;14.50;13.30;;;;;;;14.81;100.00;93004.16;5013389;28;20235;-81
2023/06/01 03:26:38;;;;;;;14.40;13.17;;;;;;;15.00;100.00;93013.50;5016997;28;20214;-81
2023/06/01 03:29:04;;;;;;;14.23;13.13;;;;;;;15.32;100.00;92983.59;5011293;28;20184;-81
2023/06/01 03:31:30;;;;;;;14.73;13.37;;;;;;;15.80;97.32;92989.84;5009703;28;20172;-81
2023/06/01 03:33:55;;;;;;;14.63;13.20;;;;;;;16.00;97.77;93015.66;5012999;28;20284;-81
2023/06/01 03:36:21;;;;;;;13.37;12.37;;;;;;;16.04;96.58;93011.38;5012073;28;20255;-82
2023/06/01 03:38:46;;;;;;;14.63;13.33;;;;;;;16.35;95.03;93003.47;5013023;28;20183;-82
2023/06/01 03:41:12;;;;;;;13.27;12.37;;;;;;;15.98;95.89;92986.25;4995486;28;20249;-83
2023/06/01 03:43:37;;;;;;;13.80;12.60;;;;;;;16.74;94.19;93011.38;5012502;28;20214;-75
2023/06/01 03:46:03;;;;;;;15.07;13.47;;;;;;;17.80;87.98;93028.31;5018992;28;20277;-75
2023/06/01 03:48:28;;;;;;;13.37;12.37;;;;;;;17.95;86.64;93027.03;5008192;28;20191;-74
2023/06/01 03:50:53;;;;;;;13.00;12.10;;;;;;;17.70;87.61;93019.94;5011614;28;20219;-75
2023/06/01 03:53:19;;;;;;;13.33;12.23;;;;;;;17.95;87.87;93011.19;5011856;28;20303;-76
2023/06/01 03:55:44;;;;;;;12.67;11.77;;;;;;;18.66;84.79;93027.03;5011467;28;20224;-72
2023/06/01 03:58:10;;;;;;;13.20;12.10;;;;;;;19.17;80.24;93026.03;5011499;28;20774;-69
2023/06/01 04:00:36;;;;;;;13.27;11.97;;;;;;;18.35;82.23;92989.50;4993450;28;20223;-72
2023/06/01 04:03:04;;;;;;;12.37;11.37;;;;;;;18.54;82.37;93003.13;5017528;28;20191;-72
2023/06/01 04:05:29;;;;;;;14.70;12.80;;;;;;;18.56;82.06;93026.63;5016429;28;20271;-71
2023/06/01 04:07:55;;;;;;;14.13;12.70;;;;;;;18.38;83.77;93041.00;4994342;28;21223;-73
2023/06/01 04:10:21;;;;;;;14.30;13.23;;;;;;;18.15;84.14;93039.63;5011247;28;20238;-72
2023/06/01 04:12:48;;;;;;;14.57;13.17;;;;;;;18.39;84.35;93037.25;5008705;28;20202;-73
2023/06/01 04:15:16;;;;;;;14.47;13.17;;;;;;;18.32;84.59;93045.63;5011299;28;20252;-71
2023/06/01 04:17:43;;;;;;;14.70;13.50;;;;;;;18.28;85.42;93038.66;4989977;28;20195;-70
2023/06/01 04:20:13;;;;;;;17.40;14.13;;;;;;;18.24;85.94;93043.78;4990092;28;20242;-74
2023/06/01 04:22:40;;;;;;;16.23;14.73;;;;;;;17.14;91.07;93037.41;5010807;28;20200;-73
2023/06/01 04:25:08;;;;;;;15.00;13.60;;;;;;;17.61;88.79;93017.28;5013277;28;20222;-72
2023/06/01 04:27:36;;;;;;;15.63;14.07;;;;;;;18.27;86.56;93023.91;5005156;28;20195;-70
2023/06/01 04:30:10;;;;;;;13.77;12.57;;;;;;;18.51;85.93;93026.78;5010757;28;20235;-73
2023/06/01 04:32:37;;;;;;;15.47;13.77;;;;;;;18.12;88.31;93027.81;5003093;28;20269;-75
2023/06/01 04:35:05;;;;;;;14.23;12.93;;;;;;;17.87;88.28;93035.78;5010598;28;20243;-75
2023/06/01 04:37:34;;;;;;;16.00;14.50;;;;;;;18.49;85.75;93024.47;5010432;28;20243;-75
2023/06/01 04:39:59;;;;;;;15.10;13.60;;;;;;;18.67;85.17;93038.41;5009386;28;20294;-76
2023/06/01 04:42:25;;;;;;;18.57;14.80;;;;;;;18.56;86.70;93047.78;5011129;28;20187;-71
2023/06/01 04:44:51;;;;;;;16.37;14.83;;;;;;;18.98;85.13;93054.78;5010441;28;20231;-71
2023/06/01 04:47:17;;;;;;;16.83;15.13;;;;;;;19.39;81.58;93052.25;4993810;28;20215;-71
2023/06/01 04:49:43;;;;;;;19.23;16.33;;;;;;;19.49;80.80;93067.75;4997880;28;20219;-71
2023/06/01 04:52:10;;;;;;;15.83;14.43;;;;;;;19.29;81.39;93051.81;5009202;28;20216;-71
2023/06/01 04:54:36;;;;;;;17.27;15.30;;;;;;;19.00;81.82;93040.13;4992134;28;20291;-74
2023/06/01 04:57:01;;;;;;;17.90;16.13;;;;;;;19.45;81.94;93061.56;5011497;28;20930;-76
2023/06/01 04:59:27;;;;;;;18.07;16.20;;;;;;;19.17;82.35;93053.25;5009300;28;20225;-74
2023/06/01 05:01:52;;;;;;;17.00;15.17;;;;;;;18.54;87.42;93055.25;5001990;28;20227;-74
2023/06/01 05:04:18;;;;;;;18.57;16.13;;;;;;;18.76;85.06;93057.66;5009853;28;20263;-74
2023/06/01 05:06:43;;;;;;;16.17;14.50;;;;;;;18.52;86.89;93052.16;5005831;28;20180;-72
2023/06/01 05:09:08;;;;;;;16.93;15.17;;;;;;;18.48;85.98;93040.66;5008238;28;20188;-76
2023/06/01 05:11:34;;;;;;;18.63;16.57;;;;;;;18.14;89.52;93059.19;4996625;28;20232;-74
2023/06/01 05:14:02;;;;;;;18.07;16.23;;;;;;;19.06;85.39;93057.38;5008956;28;20196;-76
2023/06/01 05:16:28;;;;;;;18.67;16.77;;;;;;;18.86;84.39;93054.69;5010276;28;20191;-76
2023/06/01 05:18:55;;;;;;;17.37;15.67;;;;;;;19.10;84.71;93068.09;5009864;28;20211;-76
2023/06/01 05:21:21;;;;;;;17.23;15.47;;;;;;;18.78;85.71;93068.72;5000407;28;20180;-75
2023/06/01 05:23:47;;;;;;;17.63;15.70;;;;;;;18.69;87.40;93073.25;5007930;28;20716;-78
2023/06/01 05:26:13;;;;;;;18.23;16.53;;;;;;;19.67;82.06;93073.72;5009876;28;20326;-77
2023/06/01 05:28:39;;;;;;;16.47;14.77;;;;;;;20.39;78.65;93074.84;5010149;28;20189;-75
2023/06/01 05:31:05;;;;;;;18.50;15.03;;;;;;;20.34;78.04;93075.03;5006045;28;20229;-75
2023/06/01 05:33:30;;;;;;;14.77;13.27;;;;;;;23.87;65.42;93075.97;5009766;28;20190;-78
2023/06/01 05:35:56;;;;;;;14.63;13.27;;;;;;;25.87;57.38;93077.72;5009401;28;20611;-75
2023/06/01 05:38:21;;;;;;;13.20;12.00;;;;;;;25.15;57.10;93060.19;5009888;28;20180;-75
2023/06/01 05:40:47;;;;;;;13.63;12.50;;;;;;;26.85;52.64;93047.97;5010124;28;20224;-75
2023/06/01 05:43:12;;;;;;;12.05;11.05;;;;;;;30.12;44.03;93085.06;5009916;28;20185;-75
2023/06/01 05:45:37;;;;;;;12.13;11.23;;;;;;;32.11;38.63;93085.13;5008221;28;20246;-76
2023/06/01 05:48:03;;;;;;;12.00;10.90;;;;;;;31.68;38.74;93083.91;5009655;28;20187;-76
2023/06/01 05:50:29;;;;;;;11.82;10.82;;;;;;;31.86;39.11;93085.34;5008861;28;20231;-74
2023/06/01 05:52:54;;;;;;;11.60;10.40;;;;;;;33.22;35.59;93089.63;5009713;28;20207;-73
2023/06/01 05:55:20;;;;;;;10.98;10.00;;;;;;;34.13;33.70;93097.13;5009083;28;21164;-77
2023/06/01 05:57:48;;;;;;;11.18;10.23;;;;;;;33.77;32.24;93093.47;5015572;28;20180;-73
2023/06/01 06:00:15;;;;;;;11.13;10.23;;;;;;;29.81;39.24;93075.09;5008836;28;20233;-73
2023/06/01 06:02:44;;;;;;;12.63;11.32;;;;;;;30.34;38.90;93078.47;5005156;28;20187;-75
2023/06/01 06:05:09;;;;;;;10.63;9.75;;;;;;;30.84;38.58;93069.81;5008400;28;20223;-75
2023/06/01 06:07:35;;;;;;;11.43;10.43;;;;;;;32.15;36.26;93081.22;5008410;28;20258;-75
2023/06/01 06:10:01;;;;;;;10.77;9.98;;;;;;;33.94;33.20;93086.22;4994110;28;20233;-75
2023/06/01 06:12:27;;;;;;;10.93;9.95;;;;;;;33.18;34.54;93091.63;5007997;28;20965;-77
2023/06/01 06:14:53;;;;;;;11.82;10.85;;;;;;;34.94;31.98;93082.06;5008143;28;20234;-77
2023/06/01 06:17:19;;;;;;;12.18;11.13;;;;;;;35.21;31.40;93093.50;5009169;28;20187;-78
2023/06/01 06:19:44;;;;;;;13.52;12.32;;;;;;;33.58;33.20;93088.72;5009390;28;20319;-78
2023/06/01 06:22:10;;;;;;;16.90;12.05;;;;;;;31.55;35.87;93080.19;5009187;28;20180;-78
2023/06/01 06:24:36;;;;;;;12.00;10.77;;;;;;;31.96;35.32;93072.91;5008337;28;20232;-79
2023/06/01 06:27:03;;;;;;;15.02;13.55;;;;;;;31.73;36.09;93089.69;5008627;28;20195;-77
2023/06/01 06:29:29;;;;;;;14.80;13.07;;;;;;;33.30;34.76;93089.13;5007978;28;20231;-79
2023/06/01 06:31:54;;;;;;;18.38;13.27;;;;;;;31.34;37.74;93081.09;5009000;28;20234;-78
2023/06/01 06:34:20;;;;;;;15.60;13.95;;;;;;;31.15;38.82;93085.06;5008288;28;20219;-78
2023/06/01 06:36:46;;;;;;;15.23;13.82;;;;;;;29.80;42.16;93082.41;5008558;28;20217;-79
2023/06/01 06:39:12;;;;;;;16.08;13.85;;;;;;;33.16;35.31;93094.72;5008370;28;20195;-77
2023/06/01 06:41:39;;;;;;;15.50;13.88;;;;;;;32.13;36.61;93088.94;5005613;28;20173;-77
2023/06/01 06:44:05;;;;;;;16.92;15.15;;;;;;;29.72;42.33;93075.50;4998362;28;20202;-78
2023/06/01 06:46:30;;;;;;;17.98;15.55;;;;;;;27.19;49.70;93060.16;5006193;28;20207;-81
2023/06/01 06:48:55;;;;;;;21.77;16.58;;;;;;;25.29;55.06;93068.44;5006946;28;20195;-79
2023/06/01 06:51:21;;;;;;;20.23;16.95;;;;;;;24.58;57.08;93062.94;5007740;28;20299;-80
2023/06/01 06:53:46;;;;;;;17.23;15.52;;;;;;;23.98;60.28;93039.66;5008585;28;20191;-77
2023/06/01 06:56:12;;;;;;;17.73;15.82;;;;;;;23.86;61.17;93067.19;5008159;28;20258;-78
2023/06/01 06:58:37;;;;;;;21.98;17.27;;;;;;;23.26;62.59;93060.53;5002760;28;20283;-76
2023/06/01 07:01:04;;;;;;;20.20;15.98;;;;;;;23.11;65.27;93052.53;5007234;28;20220;-78
2023/06/01 07:03:33;;;;;;;17.85;15.95;;;;;;;22.97;66.32;93060.97;5002468;28;20193;-77
2023/06/01 07:05:58;;;;;;;20.33;16.45;;;;;;;22.38;68.48;93054.84;5008485;28;20222;-79
2023/06/01 07:08:24;;;;;;;22.23;16.50;;;;;;;21.98;69.63;93054.09;5008455;28;20188;-78
2023/06/01 07:10:49;;;;;;;19.02;16.63;;;;;;;22.10;69.48;93043.44;5006212;28;20238;-79
2023/06/01 07:13:15;;;;;;;18.98;17.05;;;;;;;20.24;77.56;93048.94;5007618;28;20214;-76
2023/06/01 07:15:40;;;;;;;24.27;18.70;;;;;;;21.30;77.69;93023.19;5005523;28;20220;-77
2023/06/01 07:18:06;;;;;;;18.77;16.58;;;;;;;21.77;74.53;93040.22;4991262;28;20195;-80
2023/06/01 07:20:32;;;;;;;25.08;17.23;;;;;;;21.47;77.93;93033.59;5009440;28;20226;-78
2023/06/01 07:22:57;;;;;;;31.17;18.90;;;;;;;21.71;74.94;93046.84;4994721;28;20195;-77
2023/06/01 07:25:23;;;;;;;21.45;18.58;;;;;;;21.81;73.67;93046.38;5014186;28;20231;-76
2023/06/01 07:27:49;;;;;;;29.40;17.80;;;;;;;22.17;72.20;93030.31;4993334;28;20282;-77
2023/06/01 07:30:15;;;;;;;18.85;16.50;;;;;;;22.10;70.61;93041.53;5008889;28;20234;-77
2023/06/01 07:32:42;;;;;;;21.88;17.17;;;;;;;21.75;72.77;93043.19;5009454;28;20418;-77
2023/06/01 07:35:08;;;;;;;22.05;18.98;;;;;;;22.05;72.12;93039.09;5010250;28;20249;-75
2023/06/01 07:37:33;;;;;;;21.23;18.95;;;;;;;21.63;73.48;93037.09;5011733;28;20251;-74
2023/06/01 07:39:59;;;;;;;26.10;19.83;;;;;;;22.33;72.76;93038.31;5017789;28;20301;-74
2023/06/01 07:42:24;;;;;;;21.05;18.83;;;;;;;22.74;70.97;93043.25;5012795;28;20243;-75
2023/06/01 07:44:50;;;;;;;25.70;19.20;;;;;;;22.76;71.74;93038.34;5014124;28;20231;-76
2023/06/01 07:47:16;;;;;;;23.00;19.60;;;;;;;22.64;72.18;93047.19;5011485;28;20279;-74
2023/06/01 07:49:41;;;;;;;23.92;20.08;;;;;;;22.06;73.60;93037.22;5011278;28;20226;-76
2023/06/01 07:52:07;;;;;;;24.40;20.67;;;;;;;22.08;71.52;93040.31;5012354;28;20180;-75
2023/06/01 07:54:35;;;;;;;26.15;20.48;;;;;;;22.42;73.14;93041.59;5010350;28;20236;-75
2023/06/01 07:57:02;;;;;;;22.85;19.42;;;;;;;23.34;67.95;93032.94;5012765;28;20182;-75
2023/06/01 07:59:29;;;;;;;32.97;24.10;;;;;;;23.31;66.90;93033.63;5013558;28;20256;-75
2023/06/01 08:01:55;;;;;;;25.33;21.45;;;;;;;23.04;67.48;93042.47;5013465;28;20186;-75
2023/06/01 08:04:21;;;;;;;25.48;20.17;;;;;;;22.88;67.80;93033.69;5009322;28;20231;-77
2023/06/01 08:06:47;;;;;;;24.92;20.25;;;;;;;22.82;71.59;93034.31;5012738;28;20795;-77
2023/06/01 08:09:13;;;;;;;22.08;19.55;;;;;;;23.06;68.04;93015.50;5012658;28;20302;-77
2023/06/01 08:11:38;;;;;;;23.38;19.52;;;;;;;23.33;68.19;93026.03;5003086;28;20236;-76
2023/06/01 08:14:07;;;;;;;32.90;22.77;;;;;;;23.06;69.29;93021.59;5012215;28;20201;-74
2023/06/01 08:16:33;;;;;;;26.08;18.77;;;;;;;23.21;69.98;93031.47;5012747;28;20186;-74
2023/06/01 08:18:58;;;;;;;20.67;18.48;;;;;;;23.39;66.56;93026.56;5010665;28;20187;-75
2023/06/01 08:21:24;;;;;;;28.02;19.08;;;;;;;23.80;67.10;93022.50;5009077;28;20193;-76
2023/06/01 08:23:51;;;;;;;23.58;19.42;;;;;;;24.19;65.58;93034.75;5011070;28;20189;-75
2023/06/01 08:26:19;;;;;;;20.20;18.10;;;;;;;23.79;65.17;93027.06;5010987;28;20254;-75
2023/06/01 08:28:51;;;;;;;21.40;17.35;;;;;;;23.32;63.71;93024.50;5014447;28;20183;-75
2023/06/01 08:31:21;;;;;;;20.27;17.70;;;;;;;23.08;65.16;93008.69;5009983;28;20231;-76
2023/06/01 08:33:47;;;;;;;21.23;18.05;;;;;;;23.57;67.04;93011.72;5013264;28;20198;-75
2023/06/01 08:36:13;;;;;;;18.48;16.20;;;;;;;24.02;63.50;93019.16;5003979;28;20237;-75
2023/06/01 08:38:39;;;;;;;19.20;17.20;;;;;;;24.27;65.39;93020.41;4993683;28;20189;-75
2023/06/01 08:41:17;;;;;;;22.67;18.60;;;;;;;22.84;69.63;93014.22;5008122;28;20259;-74
2023/06/01 08:43:47;;;;;;;20.83;17.15;;;;;;;22.48;74.10;93013.63;5014953;28;20173;-75
2023/06/01 08:46:15;;;;;;;21.02;17.08;;;;;;;22.77;68.35;92998.06;5012919;28;20269;-74
2023/06/01 08:48:43;;;;;;;21.13;16.90;;;;;;;23.59;66.93;93001.50;5007152;28;20235;-73
2023/06/01 08:51:09;;;;;;;20.98;17.48;;;;;;;24.02;62.07;93008.47;5009696;28;20292;-74
2023/06/01 08:53:38;;;;;;;20.23;16.70;;;;;;;24.04;60.58;92996.34;5010854;28;20185;-74
2023/06/01 08:56:04;;;;;;;20.60;18.42;;;;;;;23.47;66.24;93004.28;5009747;28;20238;-75
2023/06/01 08:58:30;;;;;;;20.50;18.23;;;;;;;22.92;68.98;92999.94;5010678;28;20204;-75
2023/06/01 09:00:57;;;;;;;22.00;18.40;;;;;;;22.98;67.73;92990.59;5004601;28;20222;-76
2023/06/01 09:03:24;;;;;;;20.20;18.20;;;;;;;22.88;67.94;92993.75;5010340;28;20193;-77
2023/06/01 09:05:49;;;;;;;19.45;17.38;;;;;;;22.87;67.81;92973.56;5008365;28;20376;-82
2023/06/01 09:08:15;;;;;;;19.30;16.60;;;;;;;23.97;64.17;92992.78;5007144;28;20192;-72
2023/06/01 09:10:41;;;;;;;19.13;16.70;;;;;;;23.60;65.92;92993.16;5012637;28;20225;-70
2023/06/01 09:13:07;;;;;;;18.25;16.35;;;;;;;22.58;69.13;92984.66;4993020;28;20198;-73
2023/06/01 09:15:32;;;;;;;18.50;16.23;;;;;;;21.83;70.93;92988.34;5006055;28;20241;-70
2023/06/01 09:18:11;;;;;;;19.73;17.40;;;;;;;21.47;71.71;92985.75;5008857;28;20201;-70
2023/06/01 09:20:38;;;;;;;19.67;15.85;;;;;;;21.66;71.14;92986.72;5003205;28;20278;-70
2023/06/01 09:23:04;;;;;;;20.23;16.92;;;;;;;22.20;70.63;92977.22;5009636;28;20237;-74
2023/06/01 09:25:33;;;;;;;21.77;14.25;;;;;;;22.46;69.63;92989.25;5009449;28;20230;-74
2023/06/01 09:28:01;;;;;;;16.30;14.60;;;;;;;22.83;68.94;92990.59;5009697;28;20194;-74
2023/06/01 09:30:39;;;;;;;16.75;15.00;;;;;;;22.03;67.01;92984.72;5010031;28;20227;-73
2023/06/01 09:33:20;;;;;;;16.42;14.32;;;;;;;22.05;66.07;92996.53;5004531;28;20194;-73
2023/06/01 09:35:47;;;;;;;19.20;13.57;;;;;;;22.19;64.72;92977.56;5009617;28;20228;-71
2023/06/01 09:38:21;;;;;;;14.95;13.45;;;;;;;22.22;64.55;92979.53;5006259;28;20233;-73
2023/06/01 09:41:02;;;;;;;16.83;14.82;;;;;;;21.73;65.38;92975.50;5009302;28;20870;-73
2023/06/01 09:43:28;;;;;;;15.07;13.38;;;;;;;21.97;67.36;92980.75;5009811;28;20205;-73
2023/06/01 09:46:04;;;;;;;15.40;13.75;;;;;;;22.52;68.30;92975.41;5007208;28;20292;-74
2023/06/01 09:48:29;;;;;;;15.70;14.20;;;;;;;22.97;62.98;92970.41;5009639;28;20193;-74
2023/06/01 09:50:54;;;;;;;15.77;14.27;;;;;;;23.22;62.60;92966.38;5008527;28;20313;-73
2023/06/01 09:53:20;;;;;;;17.05;13.93;;;;;;;23.21;60.44;92972.84;4990283;28;20240;-72
2023/06/01 09:56:03;;;;;;;14.88;13.38;;;;;;;22.83;65.50;92962.09;5011586;28;20298;-72
2023/06/01 09:58:28;;;;;;;17.00;13.80;;;;;;;23.07;66.14;92969.06;5009489;28;20199;-71
2023/06/01 10:00:55;;;;;;;16.40;13.23;;;;;;;22.45;67.69;92961.88;5008132;28;20225;-72
2023/06/01 10:03:22;;;;;;;14.40;12.85;;;;;;;22.83;66.28;92948.78;5004108;28;20197;-72
2023/06/01 10:05:48;;;;;;;13.50;12.35;;;;;;;21.74;60.69;92955.78;5008811;28;20221;-72
2023/06/01 10:08:15;;;;;;;12.90;11.77;;;;;;;22.27;61.45;92947.38;5009764;28;20677;-72
2023/06/01 10:10:45;;;;;;;11.90;10.73;;;;;;;22.23;55.58;92945.72;5012668;28;20223;-69
2023/06/01 10:13:11;;;;;;;11.02;10.10;;;;;;;21.87;56.50;92944.00;4999310;28;20249;-70
2023/06/01 10:15:37;;;;;;;11.48;10.57;;;;;;;21.79;57.04;92944.94;5008427;28;20224;-71
2023/06/01 10:18:06;;;;;;;10.85;10.05;;;;;;;20.78;56.95;92940.03;5007621;28;20197;-71
2023/06/01 10:20:36;;;;;;;11.27;10.48;;;;;;;21.01;57.76;92947.25;5008738;28;20234;-71
2023/06/01 10:23:03;;;;;;;11.20;10.43;;;;;;;21.15;60.25;92944.22;5008986;28;20213;-71
2023/06/01 10:25:40;;;;;;;11.65;10.65;;;;;;;21.51;59.44;92954.75;5008823;28;20339;-70
2023/06/01 10:28:07;;;;;;;11.82;10.70;;;;;;;20.81;63.90;92934.06;5008937;28;20212;-71
2023/06/01 10:30:34;;;;;;;12.55;11.55;;;;;;;20.70;67.32;92936.41;4986935;28;20225;-72
2023/06/01 10:33:00;;;;;;;12.68;11.55;;;;;;;20.22;69.53;92938.97;5005127;28;20244;-71
2023/06/01 10:35:32;;;;;;;12.20;11.20;;;;;;;20.16;71.26;92935.78;5008544;28;20233;-71
2023/06/01 10:38:06;;;;;;;11.57;10.65;;;;;;;20.68;68.41;92936.69;5008953;28;20222;-70
2023/06/01 10:40:39;;;;;;;11.83;10.90;;;;;;;20.50;69.68;92932.72;5003345;28;20755;-70
2023/06/01 10:43:05;;;;;;;12.33;11.23;;;;;;;20.43;69.65;92919.25;5008594;28;20199;-70
2023/06/01 10:45:34;;;;;;;12.65;11.38;;;;;;;20.37;69.34;92931.16;5000264;28;20302;-69
2023/06/01 10:48:01;;;;;;;11.88;10.98;;;;;;;20.97;68.66;92927.75;5005578;28;20219;-71
2023/06/01 10:50:26;;;;;;;13.10;11.85;;;;;;;20.96;68.76;92920.13;5008437;28;20903;-70
2023/06/01 10:52:53;;;;;;;11.83;10.93;;;;;;;20.90;67.35;92932.06;4997494;28;20179;-69
2023/06/01 10:55:21;;;;;;;11.37;10.37;;;;;;;20.46;66.29;92931.06;5002498;28;20254;-71
2023/06/01 10:57:47;;;;;;;10.35;9.63;;;;;;;20.19;68.39;92934.34;5007440;28;20193;-72
2023/06/01 11:00:20;;;;;;;11.20;10.47;;;;;;;20.06;66.49;92922.16;5010223;28;20213;-72
2023/06/01 11:02:54;;;;;;;11.32;10.32;;;;;;;20.10;65.75;92921.16;5009383;28;20194;-70
2023/06/01 11:05:50;;;;;;;11.23;10.33;;;;;;;19.75;69.64;92914.66;5017698;28;20212;-71
2023/06/01 11:08:21;;;;;;;11.80;10.70;;;;;;;19.35;74.04;92910.97;5008084;28;20206;-70
2023/06/01 11:10:53;;;;;;;11.83;10.93;;;;;;;19.27;75.42;92913.69;5009380;28;20225;-69
2023/06/01 11:13:25;;;;;;;11.00;9.93;;;;;;;19.11;74.29;92913.50;5014425;28;20256;-69
2023/06/01 11:16:27;;;;;;;11.10;10.27;;;;;;;19.04;73.51;92921.16;5012588;28;20240;-69